Aguayo, Argentina
Current Conditions -  °F | °C
As of 6:00 PM on Tuesday 21 Oct 2014 (Local Time) from SACO Reporting Station
Clear Clear  
Wind Chill: 86°   Ceiling: Unl
Heat Index: 86°   Visibility: 6mi
Dew Point: 55°   Wind: 22mph
Humidity: 35%   Direction: 20°NNE
Pressure: 29.97"   Gusts: NA
Location:  31.58°S, 66.02°W
Report Text: SACO 212100Z 02019KT CAVOK 30/13 Q1015
Loading
Personal Weather Stations






























Interactive Weather Map
Tropical Storm Tracking
New forecast layout! Learn more

10-Day Weather Forecast

Advertisements
Track Severe Weather on mobile